Sunday, November 19, 2017, 11:19 PM EST
Back to Local

KNUI, Knui Webster Field Annex

Location: Saint Inigoes, MD, United States Lat: 38.15
Local Time: 11:19 PM EST ( 4:19 GMT) Lon: -76.417
Time Zone: US/Eastern Elev: 19 ft

Show me the last for .
Show Decoded

2017-11-19 20:53 METAR KNUI 200153Z AUTO VRB04KT 10SM FEW070 07/M04 A2992 RMK AO2 SLP130
                 T00721039 =
2017-11-19 19:53 METAR KNUI 200053Z AUTO 30007KT 10SM BKN065 08/M04 A2990 RMK AO2 SLP123
                 T00831039 =
2017-11-19 18:53 METAR KNUI 192353Z AUTO VRB06G15KT 10SM FEW070 08/M04 A2988 RMK AO2 SLP117
                 T00831044 10133 20083 51040 =

Support USWX by starting your Amazon purchase here.